Tiempo atmosférico en la estación meteorológica de Puerto De Leitariegos, Asturias (1550 m.)



Fecha
DESCASC
Temp. máxima en grados centígrados (hora)
DESCASC
Temp. mínima en grados centígrados (hora)
DESCASC
Temp. media en grados centígrados
DESCASC
Racha de viento máxima en m/sg (hora)
DESCASC
Velocidad máxima media en intervalos de 10 minutos(hora)
DESCASC
Precipitaciones diarias en mm
DESCASC
Precipitaciones de 00:00 a 06:00 en mm
DESCASC
Precipitaciones de 06:00 a 12:00 en mm
DESCASC
Precipitaciones de 12:00 a 18:00 en mm
DESCASC
Precipitaciones de 18:00 a 24:00 en mm
DESCASC
21-02-2021 4.5 (05:00) -1.5 (19:30) 1.5 25.56 (02:20) 15 (02:20) 4.2 0 3.2 0.8 0.2
20-02-2021 5.6 (10:10) 2.6 (21:30) 4.1 28.06 (06:10) 13.61 (11:50) 6 0 0.4 4.6 1
19-02-2021 6.4 (13:20) 2.4 (00:30) 4.4 22.78 (23:50) 11.39 (23:50) 0 0 0 0 0
18-02-2021 4.6 (01:20) 1.6 (00:00) 3.1 26.11 (01:20) 11.11 (20:10) 15.4 6.6 8.8 0 0
17-02-2021 5.8 (12:50) 1 (00:00) 3.4 22.22 (21:20) 10.28 (04:10) 8.4 0 0 0 8.4
16-02-2021 6.1 (15:30) 1.5 (00:00) 3.8 23.33 (08:10) 10.28 (09:30) 1.2 0 1 0.2 0
15-02-2021 10.1 (16:00) 1.8 (00:00) 6 11.94 (16:10) 8.06 (15:00) 0 0 0 0 0
14-02-2021 10.6 (11:50) 1.7 (00:00) 6.2 16.67 (18:20) 7.78 (18:20) 0 0 0 0 0
13-02-2021 7.7 (15:10) 0.4 (00:00) 4 18.06 (08:50) 6.39 (09:10) 0 0 0 0 0
12-02-2021 6.1 (16:20) 1 (00:00) 3.5 15.28 (02:50) 9.17 (12:10) 12.8 8.4 4.4 0 0
11-02-2021 6.5 (16:00) 0.4 (00:00) 3.5 21.39 (16:10) 7.22 (16:00) 2.8 0.2 0.4 0 2.2
10-02-2021 7.7 (14:30) -2.3 (-00:0) 2.7 14.72 (02:40) 8.33 (10:10) 2.4 2.4 0 0 0
09-02-2021 1.8 (16:30) -1.8 (-00:0) 0 24.17 (03:50) 12.78 (04:50) 8.6 0 7 0.2 1.4
08-02-2021 3.5 (12:50) -0.3 (00:00) 1.6 17.78 (07:50) 7.22 (22:00) 1.4 0.8 0 0.4 0.2
07-02-2021 3.2 (16:50) -6.6 (-00:0) -1.7 14.72 (23:59) 7.22 (23:59) 5.8 0 1.4 2.2 2.2
06-02-2021 1.3 (13:00) -3.5 (-00:0) -1.1 11.39 (01:50) 6.94 (12:20) 3 1.4 0.2 1 0.4
05-02-2021 3.1 (12:20) -0.3 (00:00) 1.4 9.17 (23:50) 3.89 (23:50) 2.2 0 0 1 1.2
04-02-2021 2.5 (13:40) 0.6 (00:00) 1.6 15.83 (02:30) 8.61 (02:40) 0.4 0.4 0 0 0
03-02-2021 5.7 (00:30) 1.1 (00:00) 3.4 22.22 (00:40) 8.61 (00:20) 8 6.2 0.2 1.2 0.4
02-02-2021 5.9 (00:10) 3.8 (00:00) 4.9 23.89 (03:40) 10.83 (02:30) 10.6 0 1 3.2 6.4
01-02-2021 8.1 (17:10) 3.5 (00:00) 5.8 18.89 (01:10) 8.89 (23:40) 0 0 0 0 0
31-01-2021 7.9 (16:00) 0.1 (00:00) 4 24.72 (17:10) 11.39 (17:10) 2.4 0 1.2 0 1.2
30-01-2021 4.7 (00:00) -0.7 (-00:0) 2 -- (--) -- (--) 14.6 9.8 0.2 3.4 1.2
29-01-2021 9.4 (14:20) 4.5 (00:00) 6.9 -- (--) -- (--) 0.8 0.4 0 0 0.4
28-01-2021 12.4 (12:40) 4.5 (00:00) 8.4 20 (07:30) 6.94 (23:50) 0 0 0 0 0
27-01-2021 12.6 (13:20) 4.7 (00:00) 8.7 12.78 (02:40) 6.94 (03:50) 0 0 0 0 0
26-01-2021 10 (13:20) 3.8 (00:00) 6.9 8.06 (08:00) 3.89 (08:50) 1 0 0 0 1
25-01-2021 5.5 (06:20) 0.3 (00:00) 2.9 -- (--) -- (--) 27.8 13.6 9.6 4.6 0

Gráficas

Temp. máximas Temp. mínimas Temp. medias Precipitaciones Rachas de viento máximas Velocidades máximas media en intervalos de 10 minutos

Datos horarios

Fecha y hora oficial Temperatura (ºC) Velocidad del viento (km/h) Dirección del viento Racha (km/h) Dirección de racha Precipitación (mm) Presión (hPa) Tendencia (hPa) Humedad (%)
2021-02-23 23:00:00 2 29 Sudeste 39 Sudeste 0 857.2 0.3 77
2021-02-23 22:00:00 2.6 24 Sudeste 48 Sudeste 0 857.8 1.3 76
2021-02-23 21:00:00 3.1 26 Sudeste 41 Sudeste 0 857.2 0.9 75
2021-02-23 20:00:00 3.9 29 Sudeste 44 Sudeste 0 856.9 0.9 74
2021-02-23 19:00:00 4.8 26 Sudeste 44 Sudeste 0 856.5 0.7 76
2021-02-23 18:00:00 5.4 24 Sudeste 44 Sudeste 0 856.3 -- 76
2021-02-23 17:00:00 5.4 30 Sudeste 47 Sudeste 0 856 -- 76
2021-02-23 16:00:00 5.9 30 Sudeste 46 Sudeste 0 855.8 -- 71
2021-02-23 15:00:00 6.6 29 Sudeste 49 Sudeste 0 855.7 -- 68
2021-02-23 14:00:00 6.3 27 Sudeste 45 Sudeste 0 855.8 -- 66
2021-02-23 13:00:00 5.2 29 Sudeste 42 Sudeste 0 856.2 -- 67
2021-02-23 12:00:00 5 29 Sudeste 42 Sudeste 0 856.1 -- 65
2021-02-23 11:00:00 4.7 24 Sudeste 42 Sudeste 0 855.8 -- 63
2021-02-23 10:00:00 3.7 23 Sudeste 35 Sur 0 855.5 -- 63
2021-02-23 09:00:00 1.2 22 Sur 33 Sur 0 854.8 -- 69
2021-02-23 08:00:00 -0.9 17 Sudeste 35 Sur 0 854.1 -- 73
2021-02-23 07:00:00 -1 17 Sur 29 Sur 0 853.7 -- 71
2021-02-23 06:00:00 -0.5 19 Sur 34 Sudeste 0 853.5 -- 73
2021-02-23 05:00:00 -0.5 21 Sur 31 Sur 0 853 -- 72
2021-02-23 04:00:00 -0.4 21 Sur 31 Sur 0 852.9 -- 69
2021-02-23 03:00:00 -0.3 18 Sur 33 Sur 0 852.9 -- 62
2021-02-23 02:00:00 -0.1 20 Sur 31 Sur 0 852.8 -- 61
2021-02-23 01:00:00 -0.4 18 Sudeste 28 Sudeste 0 852.4 -- 67
2021-02-23 00:00:00 -0.7 17 Sur 26 Sudeste 0 852 -- 64
2021-02-22 23:00:00 -1 14 Sudeste 25 Sur 0 851.8 -- 60
2021-02-22 22:00:00 -0.5 9 Sudeste 12 Sur 0 851.2 -- 57
2021-02-22 21:00:00 -0.3 8 Sudeste 18 Sur 0 850.5 -- 52
2021-02-22 20:00:00 0.7 9 Sur 17 Sur 0 850.2 -- 45
2021-02-22 19:00:00 1.3 12 Sur 21 Sur 0 849.6 -- 32
2021-02-22 18:00:00 1.8 13 Sur 21 Sur 0 849 -- 40
2021-02-22 17:00:00 5 13 Sur 19 Sur 0 848.6 -- 43
2021-02-22 16:00:00 5.5 9 Sur 19 Sudoeste 0 848.1 -- 52
2021-02-22 15:00:00 6.1 6 Sur 17 Sudeste 0 847.8 -- 51
2021-02-22 14:00:00 4.4 9 Sudeste 16 Sudeste 0 847.4 -- 56
2021-02-22 13:00:00 4.2 6 Sudeste 11 Sudeste 0 847.3 -- 65
2021-02-22 12:00:00 3.2 6 Sudeste 9 Sudeste 0 846.8 -- 72
2021-02-22 11:00:00 2.6 3 Sudeste 6 Sudeste 0 846.3 -- 77
2021-02-22 10:00:00 -0.3 2 Sudeste 6 Norte 0 845.8 -- 84
2021-02-22 09:00:00 -4.9 2 Sudeste 14 Noroeste 0 845.1 -- 92
2021-02-22 08:00:00 -4.7 7 Noroeste 22 Norte 0 844.4 -- 91
2021-02-22 07:00:00 -3.2 14 Noroeste 28 Noroeste 0 844 1.8 93
2021-02-22 06:00:00 -2.9 17 Noroeste 27 Noroeste 0 843.1 -- 94
2021-02-22 05:00:00 -2.7 15 Noroeste 25 Noroeste 0 842.7 -- 94
2021-02-22 04:00:00 -2.7 21 Noroeste 37 Noroeste 0 842.2 -- 94
2021-02-22 03:00:00 -2.3 23 Noroeste 35 Noroeste 0 842 -- 95
2021-02-22 02:00:00 -2.1 27 Noroeste 39 Noroeste 0 841.6 -- 95
2021-02-22 01:00:00 -1.8 25 Noroeste 37 Noroeste 0.2 841.1 -- 95
2021-02-22 00:00:00 -1.3 23 Noroeste 37 Noroeste 0 840.6 -- 96
2021-02-21 23:00:00 -1.4 25 Noroeste 40 Noroeste 0.2 840.2 -- 96
2021-02-21 22:00:00 -1.2 21 Noroeste 41 Noroeste 0 839.6 2 96
2021-02-21 21:00:00 -1.3 23 Noroeste 36 Noroeste 0 839.2 -- 95
2021-02-21 20:00:00 -1.3 17 Noroeste 30 Noroeste 0 838.7 -- 95
2021-02-21 19:00:00 -1.4 23 Noroeste 40 Noroeste 0 837.6 -- 94
2021-02-21 18:00:00 -1.3 27 Noroeste 50 Noroeste 0 836.9 -- 93
2021-02-21 17:00:00 -0.6 29 Noroeste 39 Noroeste 0 836.4 -- 93
2021-02-21 16:00:00 0.1 18 Noroeste 28 Noroeste 0 835.9 -- 92
2021-02-21 15:00:00 0.5 21 Noroeste 30 Noroeste 0 835.5 -- 89
2021-02-21 14:00:00 -0.3 21 Noroeste 27 Noroeste 0 835.5 -- 91
2021-02-21 13:00:00 0 13 Noroeste 22 Noroeste 0.8 835.7 -- 90
2021-02-21 12:00:00 0.4 14 Noroeste 23 Noroeste 1.4 835 -- 93
2021-02-21 11:00:00 0.5 10 Sudeste 32 Sudeste 0.8 834.5 -- 95
2021-02-21 10:00:00 0.3 21 Sudeste 33 Sudeste 0.6 834 -- 95
2021-02-21 09:00:00 0.3 27 Sudeste 48 Sudeste 0.4 833.4 -- 94
2021-02-21 08:00:00 1.7 30 Sudeste 71 Sudeste 0 832.9 -- 86
2021-02-21 07:00:00 3.1 46 Sudeste 74 Sudeste 0 833.1 -- 73
2021-02-21 06:00:00 4.4 37 Sudeste 78 Sudeste 0 833.3 -- 57
2021-02-21 05:00:00 4.5 36 Sudeste 70 Sudeste 0 833.5 -- 57
2021-02-21 04:00:00 4.3 42 Sudeste 71 Sudeste 0 833.7 -- 55
2021-02-21 03:00:00 4.3 40 Sudeste 92 Sudeste 0 834.2 -- 56
2021-02-21 02:00:00 3.3 42 Sudeste 78 Sudeste 0 834.8 -- 68
2021-02-21 01:00:00 2.8 41 Sudeste 83 Sudeste 0 835.5 -- 82
2021-02-21 00:00:00 3 44 Sudeste 76 Sudeste 0 835.6 -- 76
2021-02-20 23:00:00 3.4 36 Sudeste 73 Sudeste 0.2 835.7 -- 79
2021-02-20 22:00:00 3.3 42 Sudeste 71 Sudeste 0.2 835.4 -- 84
2021-02-20 21:00:00 2.8 31 Sudeste 62 Sudeste 0 835.6 -- 89
2021-02-20 20:00:00 3.5 30 Sudeste 59 Sudeste 0 836.1 -- 87
2021-02-20 19:00:00 3.6 24 Sudeste 50 Sur 0.6 835.8 -- 89
2021-02-20 18:00:00 4.1 30 Sudeste 60 Sudeste 0.4 835.8 -- 87
2021-02-20 17:00:00 3.9 35 Sudeste 57 Sudeste 0.4 835.4 -- 88
2021-02-20 16:00:00 4.1 30 Sudeste 59 Sur 0.4 835.3 -- 89
2021-02-20 15:00:00 4.1 34 Sudeste 68 Sudeste 0.2 835.4 -- 87
2021-02-20 14:00:00 4 34 Sudeste 64 Sudeste 1.2 835.9 -- 88
2021-02-20 13:00:00 3.6 37 Sudeste 75 Sudeste 2 836.3 -- 88
2021-02-20 12:00:00 3.8 45 Sudeste 92 Sudeste 0.4 835.2 -- 87
2021-02-20 11:00:00 5.1 34 Sudeste 77 Sudeste 0 834.8 -- 77
2021-02-20 10:00:00 5.2 45 Sudeste 93 Sudeste 0 834.3 -- 71
2021-02-20 09:00:00 5 39 Sudeste 97 Sudeste 0 833.9 -0.4 67
2021-02-20 08:00:00 4.4 38 Sudeste 76 Sudeste 0 834.4 -- 71
2021-02-20 07:00:00 4.5 34 Sudeste 101 Sudeste 0 834.3 -- 72
2021-02-20 06:00:00 4.8 39 Sudeste 82 Sudeste 0 834.3 -- 71
2021-02-20 05:00:00 5 30 Sudeste 71 Sudeste 0 834.9 -- 71
2021-02-20 04:00:00 5.2 26 Sudeste 77 Sudeste 0 836.4 -1.7 75
2021-02-20 03:00:00 5.1 31 Sudeste 79 Este 0 837.4 -- 75
2021-02-20 02:00:00 4.9 32 Sudeste 68 Sudeste 0 837.7 -- 76
2021-02-20 01:00:00 5 32 Sudeste 92 Sudeste 0 838.1 -- 76
2021-02-20 00:00:00 4.9 41 Sudeste 82 Sudeste 0 838.1 -- 77
2021-02-19 23:00:00 5 30 Sudeste 71 Sudeste 0 838.4 -1.9 77
2021-02-19 22:00:00 4.9 32 Sudeste 81 Sudeste 0 838.9 -- 80
2021-02-19 21:00:00 4.7 37 Sudeste 72 Sudeste 0 839.7 -- 80
2021-02-19 20:00:00 5.1 24 Sudeste 60 Sur 0 840.3 -- 75
2021-02-19 19:00:00 5.6 30 Sudeste 60 Sudeste 0 839.6 -- 72
2021-02-19 18:00:00 5.6 30 Sudeste 69 Sur 0 840.1 -- 72
2021-02-19 17:00:00 5.4 32 Sudeste 67 Sudeste 0 840.7 -1.7 76
2021-02-19 16:00:00 5.1 35 Sudeste 75 Sudeste 0 841.1 -- 78
2021-02-19 15:00:00 5.1 25 Sudeste 61 Sudeste 0 842.1 -- 83
2021-02-19 14:00:00 5.7 24 Sudeste 51 Sudeste 0 842.4 -- 77
2021-02-19 13:00:00 5.8 32 Sudeste 55 Sudeste 0 842.8 -- 74
2021-02-19 12:00:00 5.6 22 Sudeste 50 Sudeste 0 843.2 -- 72
2021-02-19 11:00:00 4.5 24 Sudeste 50 Sudeste 0 843.3 -- 74
2021-02-19 10:00:00 3.7 23 Sudeste 49 Sudeste 0 843.3 -- 78
2021-02-19 09:00:00 3.4 30 Sudeste 59 Sudeste 0 843.4 -- 79
2021-02-19 08:00:00 3.4 27 Sudeste 63 Sudeste 0 842.9 -- 80
2021-02-19 07:00:00 3.2 22 Sudeste 50 Sur 0 843.7 -- 81
2021-02-19 06:00:00 3.2 23 Sudeste 53 Sur 0 843.8 -- 79
2021-02-19 05:00:00 2.9 19 Sudeste 46 Sudeste 0 843.3 -- 80
2021-02-19 04:00:00 3.1 26 Sudeste 57 Sudeste 0 843.7 -- 78
2021-02-19 03:00:00 2.8 28 Sur 61 Sur 0 844 -- 78
2021-02-19 02:00:00 2.6 24 Sudeste 72 Sudeste 0 844.2 -- 78
2021-02-19 01:00:00 2.6 25 Sudeste 64 Sur 0 845 -- 77
2021-02-19 00:00:00 2.5 27 Sur 78 Sur 0 844.7 -- 79
2021-02-18 23:00:00 2.6 34 Sur 71 Sudeste 0 844.5 -- 79
2021-02-18 22:00:00 2.6 22 Sudeste 62 Sudeste 0 844.4 -- 80
2021-02-18 21:00:00 2.4 22 Sur 68 Este 0 844.3 -- 84
2021-02-18 20:00:00 2.8 37 Sudeste 78 Sudeste 0 843.7 -- 78
2021-02-18 19:00:00 2.7 32 Sudeste 63 Sudeste 0 843.7 -- 81
2021-02-18 18:00:00 3.1 10 Nordeste 37 Nordeste 0 843.9 -- 80
2021-02-18 17:00:00 3.9 12 Nordeste 59 Sudeste 0 843.7 -- 74
2021-02-18 16:00:00 3.1 20 Sudeste 55 Sur 0 843.2 -- 85
2021-02-18 15:00:00 4.2 6 Oeste 40 Sudeste 0 843.2 -- 75
2021-02-18 14:00:00 3.6 13 Nordeste 43 Este 0 843.2 -- 81
2021-02-18 13:00:00 3 14 Sudeste 28 Este 0 843.2 -- 87
2021-02-18 12:00:00 2.5 13 Norte 24 Noroeste 0.6 843.1 -- 88
2021-02-18 11:00:00 2.4 11 Norte 31 Sudeste 0.4 842.6 -- 91
2021-02-18 10:00:00 1.8 15 Sudeste 39 Sudeste 1 841.8 -- 89
2021-02-18 09:00:00 2.1 17 Sudeste 53 Sudeste 3.6 841.3 -- 91
2021-02-18 08:00:00 3.1 29 Sudeste 76 Sudeste 2 840.6 -- 89
2021-02-18 07:00:00 3.3 34 Sudeste 82 Sudeste 1.2 839.9 -- 88
2021-02-18 06:00:00 3.9 28 Sudeste 75 Sudeste 1.4 840.7 -- 87
2021-02-18 05:00:00 3.8 34 Sudeste 72 Sudeste 1.6 840.5 -- 87
2021-02-18 04:00:00 4.1 31 Sudeste 79 Sudeste 1.2 840.4 -- 90
2021-02-18 03:00:00 4.5 30 Sudeste 84 Sudeste 1.8 840.9 -- 88
2021-02-18 02:00:00 4.6 36 Sudeste 94 Sur 0.4 841.4 -- 88
2021-02-18 01:00:00 4.3 27 Sudeste 69 Sur 0.2 842.5 -- 93
2021-02-18 00:00:00 4.2 15 Sudeste 73 Sur 4 842.9 -- 89
2021-02-17 23:00:00 5 29 Sudeste 72 Sur 1.4 843 -- 89
2021-02-17 22:00:00 4.7 28 Sudeste 80 Sudeste 0.2 843.3 -- 92
2021-02-17 21:00:00 4.3 28 Sudeste 70 Sudeste 2.4 844.2 -- 88
2021-02-17 20:00:00 4.3 22 Sudeste 55 Sudeste 0.4 843.8 -- 91
2021-02-17 19:00:00 4.2 17 Sudeste 42 Sudeste 0 844.3 -- 89
2021-02-17 18:00:00 4.3 17 Sudeste 48 Sudeste 0 845 -- 89
2021-02-17 17:00:00 4.6 18 Sudeste 47 Sudeste 0 845.8 -- 86
2021-02-17 16:00:00 5.2 24 Sudeste 71 Sudeste 0 845.9 -- 74
2021-02-17 15:00:00 5 29 Sudeste 60 Sudeste 0 846.6 -- 72
2021-02-17 14:00:00 5 26 Sudeste 59 Sudeste 0 847.7 -- 69
2021-02-17 13:00:00 5.6 27 Sur 51 Sudeste 0 848.5 -- 64
2021-02-17 12:00:00 4.6 26 Sudeste 47 Sudeste 0 848.5 -- 69
2021-02-17 11:00:00 3.5 18 Sudeste 53 Sudeste 0 848.8 -- 74
2021-02-17 10:00:00 2.3 23 Sudeste 41 Sudeste 0 848.9 -- 78
2021-02-17 09:00:00 2.1 19 Sudeste 47 Sudeste 0 849.1 -- 77
2021-02-17 08:00:00 1.9 16 Sudeste 41 Sur 0 849 -- 79
2021-02-17 07:00:00 2 21 Sur 50 Sudeste 0 849.3 -- 81
2021-02-17 06:00:00 1.9 24 Sudeste 56 Sur 0 849.7 -- 80
2021-02-17 05:00:00 1.8 31 Sudeste 71 Sudeste 0 849.6 -- 79
2021-02-17 04:00:00 1.8 35 Sudeste 61 Este 0 850.1 -- 78
2021-02-17 03:00:00 1.7 32 Sudeste 58 Sudeste 0 850.5 -- 79
2021-02-17 02:00:00 1.7 30 Sudeste 59 Sudeste 0 851 -- 75
2021-02-17 01:00:00 1.2 18 Sudeste 30 Sudeste 0 851.3 -- 76
2021-02-17 00:00:00 1.5 19 Sudeste 45 Este 0 851.7 -- 76
2021-02-16 23:00:00 1.9 24 Este 55 Sudeste 0 851.6 -- 75
2021-02-16 22:00:00 2.1 21 Sudeste 47 Sur 0 851.8 -- 74
2021-02-16 21:00:00 2.2 17 Sudeste 31 Sudeste 0 851.6 -- 74
2021-02-16 20:00:00 1.9 9 Sudeste 26 Sudeste 0 851.5 -- 74
2021-02-16 19:00:00 2.6 9 Sudeste 36 Sudeste 0 851.3 -- 70
2021-02-16 18:00:00 4.3 19 Sudeste 36 Sudeste 0 851 -- 65
2021-02-16 17:00:00 5.3 7 Noroeste 38 Noroeste 0 850.9 -- 71
2021-02-16 16:00:00 5.5 12 Noroeste 48 Noroeste 0 850.7 -- 71
2021-02-16 15:00:00 5.4 14 Noroeste 51 Noroeste 0 850.8 -- 76
2021-02-16 14:00:00 4.4 17 Noroeste 44 Noroeste 0.2 850.7 -- 80
2021-02-16 13:00:00 3.5 15 Noroeste 50 Noroeste 0 851.1 -- 89
2021-02-16 12:00:00 3 26 Noroeste 45 Norte 1 850.7 -- 87
2021-02-16 11:00:00 3.7 9 Nordeste 48 Sudeste 0 850 -- 86
2021-02-16 10:00:00 3.5 27 Sudeste 63 Sudeste 0 849.3 -- 85
2021-02-16 09:00:00 3.7 33 Sudeste 84 Sudeste 0 849.2 -- 79
2021-02-16 08:00:00 3.9 31 Sudeste 77 Sudeste 0 849.1 -- 77
2021-02-16 07:00:00 4.1 21 Sudeste 53 Sudeste 0 849 -- 73
2021-02-16 06:00:00 4.3 20 Sudeste 48 Sur 0 848.9 -- 73
2021-02-16 05:00:00 4.7 18 Sudeste 49 Sur 0 849.6 -- 70
2021-02-16 04:00:00 4.4 13 Sudeste 39 Sudeste 0 850.2 -- 68
2021-02-16 03:00:00 5 17 Sudeste 40 Sudeste 0 850.7 -- 65
2021-02-16 02:00:00 5.1 17 Sudeste 50 Sudeste 0 851.2 -- 64
2021-02-16 01:00:00 5.7 21 Sudeste 39 Sudeste 0 851.6 -- 60
2021-02-16 00:00:00 5 8 Este 29 Sudoeste 0 852 -- 63
2021-02-15 23:00:00 4.7 8 Sudeste 28 Sudeste 0 852.3 -- 69
2021-02-15 22:00:00 4.6 14 Sudeste 32 Sudeste 0 852.4 -- 75
2021-02-15 21:00:00 5.2 16 Sudeste 28 Sudeste 0 852.7 -- 72
2021-02-15 20:00:00 5.6 16 Sudeste 32 Sudeste 0 852.9 -- 73
2021-02-15 19:00:00 7 14 Sudeste 33 Sudeste 0 852.9 -- 61
2021-02-15 18:00:00 7.6 20 Sudeste 34 Sudeste 0 853 -- 62
2021-02-15 17:00:00 8.6 24 Sudeste 43 Sudeste 0 853.5 -- 58
2021-02-15 16:00:00 9.9 28 Sudeste 42 Sudeste 0 854 -- 49
2021-02-15 15:00:00 9.9 29 Sudeste 42 Sudeste 0 854.3 -- 51
2021-02-15 14:00:00 9.3 22 Sudeste 38 Sudeste 0 854.9 -- 56
2021-02-15 13:00:00 8.4 22 Sudeste 36 Sur 0 855.6 -- 57
2021-02-15 12:00:00 6.4 17 Sur 28 Sudeste 0 856.3 -- 65
2021-02-15 11:00:00 5.2 17 Sur 28 Sur 0 856.7 -- 64
2021-02-15 10:00:00 2.7 11 Sudeste 17 Sur 0 856.2 -- 72
2021-02-15 09:00:00 1.9 10 Sudeste 16 Sudeste 0 855.7 -- 72
2021-02-15 08:00:00 3.3 10 Sudeste 26 Sudeste 0 855.2 -- 53
2021-02-15 07:00:00 4.5 12 Sudeste 32 Sudeste 0 855 -- 42
2021-02-15 06:00:00 4.7 16 Sudeste 30 Sudeste 0 855.2 -- 45
2021-02-15 05:00:00 5.5 15 Sudeste 39 Sudoeste 0 855.4 -- 44
2021-02-15 04:00:00 5.1 12 Sudeste 37 Sudeste 0 855.6 -- 50
2021-02-15 03:00:00 5.2 12 Sudeste 33 Sudeste 0 855.5 -- 53
2021-02-15 02:00:00 4.8 11 Sudeste 28 Sudeste 0 855.5 -- 60
2021-02-15 01:00:00 4.5 13 Sudeste 32 Sudeste 0 855.4 -- 69
2021-02-15 00:00:00 3.7 12 Sudeste 21 Sudeste 0 855.4 -- 78
2021-02-14 23:00:00 3.7 8 Sudeste 18 Sur 0 855.4 -- 79
2021-02-14 22:00:00 3.3 9 Sudeste 13 Sur 0 855.4 -- 83
2021-02-14 21:00:00 3.6 6 Sudeste 12 Sudeste 0 855.2 -- 82
2021-02-14 20:00:00 4.7 11 Sudeste 29 Sudeste 0 855 -- 76
2021-02-14 19:00:00 6.9 18 Sudeste 60 Sudeste 0 854.5 0.6 57
2021-02-14 18:00:00 7.8 26 Sudeste 48 Sudeste 0 854 0.1 51
2021-02-14 17:00:00 8.3 21 Sudeste 39 Sur 0 854.1 -- 53
2021-02-14 16:00:00 8.6 22 Sudeste 36 Sudeste 0 853.9 -- 52
2021-02-14 15:00:00 9 17 Sudeste 37 Sudeste 0 853.9 -- 57
2021-02-14 14:00:00 8.5 21 Sudeste 45 Este 0 854.1 -- 57
2021-02-14 13:00:00 8.6 17 Sudeste 30 Sudeste 0 854.8 -- 56
2021-02-14 12:00:00 9.5 12 Sudeste 40 Sudeste 0 855 -- 55
2021-02-14 11:00:00 8.4 12 Sudeste 33 Sur 0 854.7 -- 62
2021-02-14 10:00:00 7.2 21 Sudeste 45 Sudeste 0 854.3 0.3 61
2021-02-14 09:00:00 2.9 12 Sudeste 30 Sudeste 0 854.3 -- 86
2021-02-14 08:00:00 1.9 15 Sudeste 22 Sudeste 0 854.1 -- 93
2021-02-14 07:00:00 2.7 15 Sudeste 24 Sur 0 854 -- 88
2021-02-14 06:00:00 2.4 12 Sur 21 Sur 0 854.1 -- 91
2021-02-14 05:00:00 2.6 10 Sudeste 15 Sudeste 0 854.5 -- 91
2021-02-14 04:00:00 2.6 6 Sudeste 13 Sur 0 854.7 -- 92
2021-02-14 03:00:00 2.6 7 Sudeste 14 Sudeste 0 854.6 -- 92
2021-02-14 02:00:00 2.5 8 Sudeste 14 Sur 0 854.8 -- 91
2021-02-14 01:00:00 2.9 7 Sudeste 12 Sur 0 855 -- 92
2021-02-14 00:00:00 2.2 4 Sudeste 14 Sudeste 0 855.3 -- 95
2021-02-13 23:00:00 2.5 10 Sudeste 14 Sudeste 0 855 -- 93
2021-02-13 22:00:00 2.3 9 Sudeste 16 Sudeste 0 855.2 -- 91
2021-02-13 21:00:00 3.2 9 Sudeste 17 Sudeste 0 855.4 -- 90
2021-02-13 20:00:00 4.1 7 Sudeste 19 Sudeste 0 855.1 -- 87
2021-02-13 19:00:00 4.2 12 Sudeste 24 Noroeste 0 854.5 -- 86
2021-02-13 18:00:00 5.7 11 Noroeste 22 Noroeste 0 854.7 -- 77
2021-02-13 17:00:00 6.5 13 Noroeste 26 Noroeste 0 854.6 -- 74
2021-02-13 16:00:00 7.3 9 Oeste 24 Oeste 0 854.3 -- 72
2021-02-13 15:00:00 7.3 9 Oeste 24 Oeste 0 853.9 -- 72
2021-02-13 14:00:00 6.6 8 Sur 37 Noroeste 0 853.6 -- 80
2021-02-13 13:00:00 6.9 14 Noroeste 28 Oeste 0 853.8 -- 78
2021-02-13 08:00:00 1.9 5 Sudeste 21 Oeste 0 852.1 0.5 73
2021-02-13 07:00:00 1.2 8 Sudeste 24 Sur 0 851.8 -0.4 73
2021-02-13 06:00:00 1.6 14 Sur 23 Sudeste 0 851.4 -0.6 71
2021-02-13 05:00:00 1.4 13 Sur 18 Sudoeste 0 851.6 -0.4 73
2021-02-13 04:00:00 0.6 9 Sudeste 19 Sudeste 0 852.2 -0.1 83
2021-02-13 03:00:00 0.8 11 Sudeste 25 Sudeste 0 852 -0.5 84
2021-02-13 02:00:00 1.3 13 Sur 17 Sur 0 852 -0.3 82
2021-02-13 01:00:00 0.8 9 Sudeste 16 Sur 0 852.3 0.1 80
2021-02-13 00:00:00 1 7 Sudeste 15 Sudeste 0 852.5 0.3 80
2021-02-12 23:00:00 1.5 9 Sur 15 Sur 0 852.3 0.2 83
2021-02-12 22:00:00 1.5 5 Sur 10 Sur 0 852.2 0.5 85
2021-02-12 21:00:00 2.2 4 Sudoeste 22 Sudoeste 0 852.2 0.8 73
2021-02-12 20:00:00 2.5 6 Noroeste 23 Sudoeste 0 852.1 0.9 74
2021-02-12 19:00:00 3.2 13 Oeste 23 Oeste 0 851.7 0.9 77
2021-02-12 18:00:00 3.4 6 Oeste 23 Noroeste 0 851.4 0.7 78
2021-02-12 17:00:00 3.9 10 Oeste 22 Oeste 0 851.2 0.7 75
2021-02-12 16:00:00 5.2 8 Noroeste 24 Noroeste 0 850.8 0.6 73
2021-02-12 15:00:00 5.2 14 Noroeste 32 Noroeste 0 850.7 1.2 72
2021-02-12 14:00:00 4.4 16 Noroeste 33 Noroeste 0 850.5 1.7 80
2021-02-12 13:00:00 3.2 24 Noroeste 45 Noroeste 0 850.2 2 85
2021-02-12 12:00:00 2.7 31 Noroeste 46 Noroeste 0 849.5 2.3 90
2021-02-12 11:00:00 2.7 18 Noroeste 36 Noroeste 0.2 848.8 2.3 94
2021-02-12 10:00:00 2 18 Noroeste 28 Noroeste 0.4 848.2 2.4 96
2021-02-12 09:00:00 1.5 14 Noroeste 31 Noroeste 0.2 847.2 -- 96
2021-02-12 08:00:00 1.1 10 Noroeste 24 Norte 1.4 846.5 -- 95
2021-02-12 07:00:00 1.2 9 Norte 18 Noroeste 2.2 845.8 -- 95
2021-02-12 06:00:00 1.8 11 Noroeste 35 Norte 2.6 845.1 -- 95
2021-02-12 05:00:00 3.4 21 Noroeste 51 Noroeste 1.4 844.6 -- 89
2021-02-12 04:00:00 3.8 15 Noroeste 38 Noroeste 0.8 844.3 -- 87
2021-02-12 03:00:00 3.8 17 Noroeste 55 Noroeste 0 844.1 -- 90
2021-02-12 02:00:00 3.8 11 Noroeste 31 Noroeste 0.6 844 -- 85
2021-02-12 01:00:00 3.5 17 Noroeste 30 Noroeste 3 844.5 -- 87
2021-02-12 00:00:00 4.5 5 Nordeste 25 Nordeste 2 844.3 -- 90
2021-02-11 23:00:00 5.1 6 Sudeste 53 Este 0 844.2 -- 87
2021-02-11 22:00:00 5.1 20 Sudeste 42 Sudeste 0 844.4 -- 91
2021-02-11 21:00:00 5.4 21 Sudeste 53 Sur 0 844.8 -- 87
2021-02-11 20:00:00 5.2 13 Sudeste 32 Sudeste 0.2 845 -- 91
2021-02-11 19:00:00 4.4 7 Sudeste 21 Sudeste 0 845 -- 94
2021-02-11 18:00:00 5.5 8 Sudeste 37 Sudeste 0 845.3 -- 88
2021-02-11 17:00:00 5.6 17 Sudeste 77 Sudeste 0 845.5 -- 88
2021-02-11 16:00:00 6.2 26 Sudeste 60 Sudeste 0 845.5 -- 81
2021-02-11 15:00:00 6.1 18 Sudeste 44 Sudeste 0 845.8 -- 84
2021-02-11 14:00:00 5.9 18 Sudeste 49 Sudeste 0 846.2 -- 86
2021-02-11 13:00:00 5.2 23 Sudeste 39 Sudeste 0 846.5 -- 91
2021-02-11 12:00:00 5.1 17 Sudeste 29 Sudeste 0 846.5 -- 91
2021-02-11 11:00:00 4.2 12 Sudeste 23 Sudeste 0.2 846.5 -- 93
2021-02-11 10:00:00 4.2 11 Sudeste 40 Sudeste 0.2 846.5 -- 93
2021-02-11 09:00:00 3.8 22 Sudeste 49 Sudeste 0 845.9 -- 96
2021-02-11 08:00:00 2.5 14 Sudeste 21 Sudeste 0 845.3 -- 96
2021-02-11 07:00:00 2.9 10 Sur 18 Sur 0 845.4 -- 95
2021-02-11 06:00:00 3 8 Sur 19 Sudeste 0 845.3 -- 95
2021-02-11 05:00:00 3.2 5 Sudeste 17 Este 0 845.2 -- 96
2021-02-11 04:00:00 1.9 6 Sur 23 Sudeste 0.2 845.3 -- 95
2021-02-11 03:00:00 1.5 14 Sudeste 42 Oeste 0 845.3 -- 91
2021-02-11 02:00:00 1.1 12 Sur 28 Sudeste 0 845.3 -- 95
2021-02-11 01:00:00 0.4 16 Sudeste 26 Sudeste 0 845 -- 94
2021-02-11 00:00:00 1 15 Sur 25 Sur 0 844.8 -- 87
2021-02-10 23:00:00 2.3 17 Sur 24 Sudoeste 0 844.5 -- 73
2021-02-10 22:00:00 1.1 10 Sudeste 33 Sur 0 844.3 -- 76
2021-02-10 21:00:00 0.4 9 Sudeste 14 Sudeste 0 844.1 -- 79
2021-02-10 20:00:00 0.4 12 Sudeste 17 Sudeste 0 843.7 -- 81
2021-02-10 19:00:00 1 11 Sur 21 Sudoeste 0 843.2 -- 84
2021-02-10 18:00:00 1.7 12 Sudeste 17 Sudeste 0 842.6 -- 82
2021-02-10 17:00:00 1.4 4 Oeste 16 Sudeste 0 842.5 -- 77
2021-02-10 16:00:00 5.1 7 Sudeste 15 Sudeste 0 842.2 -- 69
2021-02-10 15:00:00 5 8 Oeste 21 Oeste 0 841.8 -- 67
2021-02-10 14:00:00 4.4 9 Noroeste 26 Noroeste 0 841.4 -- 73
2021-02-10 13:00:00 2.1 19 Noroeste 39 Noroeste 0 840.6 -- 79
2021-02-10 12:00:00 1.3 24 Noroeste 37 Noroeste 0 839.7 -- 81
2021-02-10 11:00:00 0.7 27 Noroeste 44 Noroeste 0 838.9 -- 84
2021-02-10 10:00:00 -0.1 25 Noroeste 40 Noroeste 0 838.1 -- 88
2021-02-10 09:00:00 -1.7 15 Noroeste 37 Noroeste 0 837 -- 93
2021-02-10 08:00:00 -2.1 12 Noroeste 34 Norte 0 835.8 -- 91
2021-02-10 07:00:00 -2.3 13 Noroeste 28 Noroeste 0 834.4 -- 93
2021-02-10 06:00:00 -2 14 Noroeste 41 Noroeste 0 833.1 -- 94
2021-02-10 05:00:00 -1.5 12 Noroeste 36 Noroeste 0 831.9 -- 95
2021-02-10 04:00:00 -1.2 13 Noroeste 36 Noroeste 0 831 -- 93
2021-02-10 03:00:00 -1.4 18 Noroeste 53 Norte 0.4 830.2 -- 93
2021-02-10 02:00:00 -1 16 Noroeste 44 Noroeste 0.6 829.6 -- 92
2021-02-10 01:00:00 -1.4 12 Sudeste 20 Sudeste 1.4 828.9 -- 95
2021-02-10 00:00:00 -1.5 13 Este 20 Este 0.2 829 -- 95
2021-02-09 23:00:00 -1.2 7 Nordeste 39 Noroeste 0 829 -- 93
2021-02-09 22:00:00 -1.4 14 Noroeste 31 Norte 0 829 -- 92
2021-02-09 21:00:00 -1.4 7 Sudeste 42 Sudeste 0 828.8 -- 94
2021-02-09 20:00:00 -1.6 18 Sudeste 35 Norte 0.4 828.4 -- 94
2021-02-09 19:00:00 -1.4 16 Norte 44 Noroeste 0.8 828.3 -- 92
2021-02-09 18:00:00 -0.6 21 Sudeste 39 Sudeste 0 828.1 -- 88
2021-02-09 17:00:00 0.6 12 Este 45 Sudeste 0.2 827.8 -- 84
2021-02-09 16:00:00 1 20 Sudeste 48 Oeste 0 827.6 -- 88
2021-02-09 15:00:00 0.2 12 Norte 44 Oeste 0 827.7 -- 86
2021-02-09 14:00:00 0.2 13 Noroeste 65 Noroeste 0 827.8 -- 90
2021-02-09 13:00:00 -0.1 16 Noroeste 55 Oeste 0 827.6 -- 91
2021-02-09 12:00:00 0 6 Sudoeste 31 Sudeste 0.2 827.3 -- 95
2021-02-09 11:00:00 -1.1 14 Norte 81 Noroeste 0.2 827.6 -- 94
2021-02-09 10:00:00 -0.5 23 Noroeste 40 Noroeste 3.2 828.5 -- 95
2021-02-09 09:00:00 0 13 Sudeste 38 Sudeste 2 827.4 -- 95
2021-02-09 08:00:00 0.2 15 Sudeste 58 Sudeste 1.2 827.5 -- 94
2021-02-09 07:00:00 0.6 18 Sudeste 64 Sudeste 0.2 828 -- 93
2021-02-09 06:00:00 0.9 32 Sudeste 81 Sudeste 0 828.5 -- 91
2021-02-09 05:00:00 0.8 41 Sudeste 83 Sudeste 0 828.7 -- 91
2021-02-09 04:00:00 0.7 44 Sudeste 87 Sudeste 0 829.3 -- 91
2021-02-09 03:00:00 0 16 Sudeste 32 Sudeste 0 831.6 -- 95
2021-02-09 02:00:00 0 22 Sudeste 44 Sudeste 0 832.5 -- 94
2021-02-09 01:00:00 0.3 19 Sudeste 48 Sudeste 0 833.1 -- 93
2021-02-09 00:00:00 0.2 18 Sudeste 43 Norte 0 833 -- 93
2021-02-08 23:00:00 1 13 Norte 42 Noroeste 0 833.6 -- 90
2021-02-08 22:00:00 1.1 26 Noroeste 51 Noroeste 0.2 833.3 -- 89
2021-02-08 21:00:00 1.3 20 Noroeste 44 Noroeste 0 833.5 -- 90
2021-02-08 20:00:00 1.1 14 Noroeste 34 Noroeste 0 833.3 -- 92
2021-02-08 19:00:00 1.1 14 Noroeste 38 Noroeste 0 833.2 -- 89
2021-02-08 18:00:00 1.1 12 Norte 32 Noroeste 0 833 -- 84
2021-02-08 17:00:00 0.9 15 Noroeste 27 Noroeste 0.4 832.6 -- 90
2021-02-08 16:00:00 1.7 18 Noroeste 32 Noroeste 0 831.5 -- 87
2021-02-08 15:00:00 1.9 15 Noroeste 45 Noroeste 0 831.3 -- 83
2021-02-08 14:00:00 2.6 19 Oeste 49 Oeste 0 830.8 -- 78
2021-02-08 13:00:00 1.9 17 Oeste 51 Noroeste 0 830.8 -- 77
2021-02-08 12:00:00 2.5 7 Nordeste 15 Este 0 830.5 -- 80
2021-02-08 11:00:00 1.7 5 Este 21 Norte 0 830.5 -- 86
2021-02-08 10:00:00 0.2 4 Sudeste 20 Sur 0 830.2 -- 91
2021-02-08 09:00:00 0 12 Noroeste 32 Norte 0 829.6 -- 89
2021-02-08 08:00:00 -0.2 21 Noroeste 64 Noroeste 0 829.2 -- 87
2021-02-08 07:00:00 -0.2 14 Noroeste 30 Noroeste 0 829.4 -- 92
2021-02-08 06:00:00 -0.2 17 Noroeste 39 Noroeste 0 829.3 -- 90
2021-02-08 05:00:00 0.2 22 Noroeste 45 Noroeste 0 829.5 -- 90
2021-02-08 04:00:00 0.1 8 Norte 20 Oeste 0 829.9 -- 95
2021-02-08 03:00:00 0.6 5 Sudoeste 31 Noroeste 0 830 -- 91
2021-02-08 02:00:00 0.6 5 Sudeste 41 Sudeste 0.4 830.5 -- 93
2021-02-08 01:00:00 0.4 23 Sudeste 52 Sudeste 0.4 830.3 -- 94
2021-02-08 00:00:00 0.6 26 Sudeste 53 Sudeste 1.4 831 -- 93
2021-02-07 23:00:00 0.9 14 Este 30 Sudeste 0.2 831.8 -- 95
2021-02-07 22:00:00 0 10 Sudeste 25 Sudeste 0.4 832.5 -- 95
2021-02-07 21:00:00 0 15 Sudeste 24 Sudeste 0.2 833.1 -- 95
2021-02-07 20:00:00 0.1 9 Sudeste 27 Sur 0 833.8 -- 95
2021-02-07 19:00:00 -0.3 13 Sur 20 Sur 0 834 -- 95
2021-02-07 18:00:00 -0.1 13 Sudeste 37 Norte 0 834.3 -- 93
2021-02-07 17:00:00 2.8 14 Noroeste 40 Oeste 0 834.7 -- 89
2021-02-07 16:00:00 2.6 18 Noroeste 40 Oeste 0.2 834.8 -- 91
2021-02-07 15:00:00 0.1 15 Sudeste 25 Sur 1 835.3 -- 91
2021-02-07 14:00:00 -0.4 10 Sur 14 Sudeste 0.2 835.9 -- 92
2021-02-07 13:00:00 -0.3 11 Sudeste 15 Sudeste 0.8 836.4 -- 89
2021-02-07 12:00:00 -1 11 Sudeste 14 Sudeste 1.4 836.9 -- 89
2021-02-07 11:00:00 -1.4 9 Sudeste 16 Sudeste 0 836.8 -- 90
2021-02-07 10:00:00 -2.4 10 Sudeste 12 Sudeste 0 836.8 -- 88
2021-02-07 09:00:00 -3.7 5 Sudeste 8 Sudeste 0 836.9 -- 91
2021-02-07 08:00:00 -4.2 5 Sudeste 9 Sudeste 0 836.9 -- 92
2021-02-07 07:00:00 -4.7 3 Oeste 15 Norte 0 836.9 -- 92
2021-02-07 06:00:00 -5.6 5 Noroeste 14 Noroeste 0 837.3 -- 91
2021-02-07 05:00:00 -6.3 7 Noroeste 15 Noroeste 0 837.4 -- 91
2021-02-07 04:00:00 -6.5 5 Noroeste 13 Noroeste 0 837.6 -- 91
2021-02-07 03:00:00 -5.6 9 Noroeste 16 Noroeste 0 837.9 -- 92
2021-02-07 02:00:00 -3.7 6 Noroeste 12 Noroeste 0 838.2 -- 93
2021-02-07 01:00:00 -3.5 8 Noroeste 14 Noroeste 0 838.5 -- 94
2021-02-07 00:00:00 -3.4 7 Norte 15 Noroeste 0 838.4 -- 94
2021-02-06 23:00:00 -3.3 8 Noroeste 20 Noroeste 0 838.4 -- 94
2021-02-06 22:00:00 -3.4 12 Noroeste 27 Noroeste 0 838.3 -- 94
2021-02-06 21:00:00 -3.4 19 Noroeste 31 Noroeste 0.2 838.1 -- 94
2021-02-06 20:00:00 -2.4 19 Noroeste 31 Noroeste 0 837.7 -- 95
2021-02-06 19:00:00 -2 16 Noroeste 32 Noroeste 0.2 837.1 -- 95
2021-02-06 18:00:00 -1.6 21 Noroeste 34 Noroeste 0.2 836.6 -- 94
2021-02-06 17:00:00 -0.5 18 Noroeste 37 Oeste 0.2 836.3 -- 92
2021-02-06 16:00:00 -0.2 22 Noroeste 38 Noroeste 0.6 836.1 -- 93
2021-02-06 15:00:00 0.8 18 Noroeste 32 Noroeste 0 836 -- 90
2021-02-06 14:00:00 0.6 21 Noroeste 41 Noroeste 0 836.1 -- 90
2021-02-06 13:00:00 1.3 24 Noroeste 41 Noroeste 0 836.3 -- 87
2021-02-06 12:00:00 1 23 Noroeste 32 Noroeste 0.2 836.1 -- 89
2021-02-06 11:00:00 0.1 18 Noroeste 32 Noroeste 0 835.6 -- 91
2021-02-06 10:00:00 -0.6 17 Noroeste 26 Noroeste 0 835.2 -- 94
2021-02-06 09:00:00 -0.7 12 Noroeste 30 Oeste 0 835 -- 94
2021-02-06 08:00:00 -0.9 14 Noroeste 28 Oeste 0 834.4 -- 95
2021-02-06 07:00:00 -0.8 18 Noroeste 31 Noroeste 0 834.2 -- 95
2021-02-06 06:00:00 -0.7 17 Noroeste 32 Noroeste 0 834.2 -- 95
2021-02-06 05:00:00 -0.7 19 Noroeste 31 Noroeste 0 834 -- 95
2021-02-06 04:00:00 -0.5 12 Noroeste 26 Norte 0 834.4 -- 94
2021-02-06 03:00:00 -0.3 17 Noroeste 32 Noroeste 1 834.5 -- 94
2021-02-06 02:00:00 0.4 14 Oeste 41 Noroeste 0.4 835.3 -- 90
2021-02-06 01:00:00 0 12 Noroeste 28 Noroeste 0 835.4 -- 94
2021-02-06 00:00:00 1 11 Oeste 33 Noroeste 0 835.6 -- 85
2021-02-05 23:00:00 1 11 Noroeste 30 Oeste 0 835.6 -- 86
2021-02-05 22:00:00 0.5 12 Oeste 28 Noroeste 0 835.7 -- 91
2021-02-05 21:00:00 1.3 12 Noroeste 31 Norte 0.2 835.5 -- 86
2021-02-05 20:00:00 1.1 8 Oeste 23 Oeste 0.4 835.6 -- 89
2021-02-05 19:00:00 1.3 8 Noroeste 24 Oeste 0.6 835.4 -- 89
2021-02-05 18:00:00 1.2 6 Oeste 19 Noroeste 0.8 835.6 -- 90
2021-02-05 17:00:00 1.1 8 Noroeste 17 Noroeste 0 835.7 -- 95
2021-02-05 16:00:00 1.7 13 Noroeste 18 Noroeste 0 836 -- 94
2021-02-05 15:00:00 2 13 Noroeste 19 Noroeste 0 836.5 -- 94
2021-02-05 14:00:00 1.3 9 Norte 13 Norte 0.2 837.2 -- 93
2021-02-05 13:00:00 1 9 Norte 14 Noroeste 0 838 -- 92
2021-02-05 12:00:00 3 6 Sudoeste 14 Norte 0 838.1 -- 82
2021-02-05 11:00:00 1.5 3 Sudeste 13 Noroeste 0 838.4 -- 89
2021-02-05 10:00:00 1.5 7 Oeste 17 Sur 0 838.4 -- 86
2021-02-05 09:00:00 0.8 9 Sudeste 16 Sur 0 838.5 -- 88
2021-02-05 08:00:00 -0.2 11 Noroeste 14 Noroeste 0 838.7 -- 92
2021-02-05 07:00:00 -0.2 5 Sudeste 9 Sur 0 838.6 -- 91
2021-02-05 06:00:00 0.1 2 Este 5 Sudeste 0 839.1 -- 89
2021-02-05 05:00:00 -0.1 2 Sudeste 9 Noroeste 0 839.7 -- 90
2021-02-05 04:00:00 0.4 8 Noroeste 12 Noroeste 0 839.4 -- 88
2021-02-05 03:00:00 0.7 5 Sudeste 13 Sur 0 839.5 -- 90
2021-02-05 02:00:00 0.8 2 Sudoeste 7 Sudeste 0 839.7 -- 93
2021-02-05 01:00:00 0.8 6 Sudeste 10 Sudeste 0 840.4 -- 93
2021-02-05 00:00:00 0.8 4 Sur 10 Sudeste 0 840.1 -- 94
2021-02-04 23:00:00 0.7 7 Sur 13 Sudeste 0 840.1 -- 94
2021-02-04 22:00:00 0.6 10 Sur 18 Sudeste 0 839.9 -- 94
2021-02-04 21:00:00 0.8 9 Sudeste 14 Sudeste 0 839.4 -- 93
2021-02-04 20:00:00 0.7 7 Sudeste 17 Sur 0 839.5 -- 94
2021-02-04 19:00:00 1 10 Sudeste 17 Sudeste 0 839.2 -- 93
2021-02-04 18:00:00 1.4 8 Sudeste 14 Sur 0 838.7 -- 91
2021-02-04 17:00:00 2 9 Sur 15 Sudeste 0 838.7 -- 87
2021-02-04 16:00:00 2.4 9 Sudeste 22 Sudeste 0 838.6 -- 84
2021-02-04 15:00:00 2.2 13 Sudeste 23 Sudeste 0 839 -- 83
2021-02-04 14:00:00 2.3 13 Sudeste 22 Sudeste 0 839.7 -- 84
2021-02-04 13:00:00 2.1 19 Sudeste 30 Sudeste 0 840 -- 85
2021-02-04 12:00:00 2.1 18 Sudeste 26 Sudeste 0 839.9 -- 87
2021-02-04 11:00:00 1.4 10 Sur 20 Sur 0 840.1 -- 89
2021-02-04 10:00:00 0.9 12 Sudeste 24 Sudeste 0 839.9 -- 91
2021-02-04 09:00:00 0.8 14 Sudeste 34 Sudeste 0 839.5 -- 89
2021-02-04 08:00:00 1.1 15 Sudeste 38 Sudeste 0 839.3 -- 85
2021-02-04 07:00:00 1 19 Sudeste 46 Sudeste 0 839.1 -- 85
2021-02-04 06:00:00 1.1 19 Sudeste 45 Sudeste 0 839.2 -- 84
2021-02-04 05:00:00 1.2 21 Sudeste 48 Sudeste 0 839.3 -- 84
2021-02-04 04:00:00 1.3 19 Sudeste 55 Sudeste 0 839.4 -- 89
2021-02-04 03:00:00 1.5 21 Sudeste 57 Sudeste 0.2 839.3 -- 86
2021-02-04 02:00:00 1.3 27 Sudeste 55 Sudeste 0 839.3 -- 88
2021-02-04 01:00:00 1.5 22 Sudeste 49 Sur 0.2 839.4 -- 83
2021-02-04 00:00:00 1.5 20 Sudeste 51 Sudeste 0 839.5 -- 87
2021-02-03 23:00:00 1.7 17 Sudeste 44 Sudeste 0 839.6 -- 88
2021-02-03 22:00:00 1.7 18 Sudeste 57 Sudeste 0.4 839.5 -- 90
2021-02-03 21:00:00 2.3 26 Sudeste 59 Sudeste 0 839.5 -- 87
2021-02-03 20:00:00 2.5 22 Sudeste 67 Sudeste 0 839.5 -- 86
2021-02-03 19:00:00 2.3 24 Sudeste 71 Sur 0 839.6 -- 86
2021-02-03 18:00:00 2.3 21 Sudeste 47 Sudeste 0 839.5 -- 87
2021-02-03 17:00:00 2.6 20 Sudeste 39 Sudeste 0 839.7 -- 87
2021-02-03 16:00:00 2.4 25 Sudeste 42 Sudeste 1 839.9 -- 88
2021-02-03 15:00:00 2.3 22 Sudeste 54 Sudeste 0.2 840.1 -- 86
2021-02-03 14:00:00 3.3 25 Sudeste 53 Sudeste 0 840.2 -- 79
2021-02-03 13:00:00 3.1 10 Este 55 Sudeste 0 840.6 -- 80
2021-02-03 12:00:00 2.3 18 Sudeste 56 Sur 0 840.6 -- 84
2021-02-03 11:00:00 2 9 Nordeste 47 Noroeste 0 840.4 -- 83
2021-02-03 10:00:00 1.5 16 Sudeste 41 Sudeste 0.2 839.8 -- 90
2021-02-03 09:00:00 1.5 9 Sudoeste 57 Sudeste 0 839.3 -- 89
2021-02-03 08:00:00 1.7 22 Sudeste 45 Sudeste 0 838.6 -- 84
2021-02-03 07:00:00 1.9 13 Noroeste 45 Noroeste 0 838.9 -- 84
2021-02-03 06:00:00 2.7 9 Nordeste 65 Noroeste 0.4 838 -- 89
2021-02-03 05:00:00 3 21 Norte 59 Noroeste 1.8 837.4 -- 91
2021-02-03 04:00:00 4.4 25 Noroeste 72 Este 0.4 837.3 -- 87
2021-02-03 03:00:00 5.3 19 Norte 49 Noroeste 1.2 837.4 -- 86
2021-02-03 02:00:00 5.4 8 Nordeste 66 Sur 1.4 837.6 -- 91
2021-02-03 01:00:00 5.3 29 Sudeste 80 Sudeste 1 836.9 -- 91
2021-02-03 00:00:00 5.4 26 Sudeste 54 Sur 2 837.7 -- 90
2021-02-02 23:00:00 5.3 29 Sudeste 69 Sudeste 1.4 838.3 -- 89
2021-02-02 22:00:00 4.8 17 Sudeste 64 Sudeste 1.4 839.1 -- 91
2021-02-02 21:00:00 4.7 24 Sudeste 68 Sur 1 839.8 -- 90
2021-02-02 20:00:00 4.6 35 Sudeste 72 Sudeste 0.2 840.4 -- 89
2021-02-02 19:00:00 4.2 33 Sudeste 74 Sudeste 0.4 841 -- 87
2021-02-02 18:00:00 5.2 30 Sudeste 64 Sudeste 0.4 840.7 -- 86
2021-02-02 17:00:00 5.1 17 Sudeste 58 Sur 0 841 -- 93
2021-02-02 16:00:00 5.2 22 Sudeste 41 Sur 0 841.4 -- 91
2021-02-02 15:00:00 5 19 Sudeste 40 Sudeste 0 842.4 -- 90
2021-02-02 14:00:00 4.9 21 Sudeste 61 Sudeste 1 843 -- 91
2021-02-02 13:00:00 4.8 28 Sudeste 55 Sudeste 1.8 844.2 -- 90
2021-02-02 12:00:00 5.2 13 Este 47 Sur 0.8 844.5 -- 89
2021-02-02 11:00:00 4.6 13 Sudeste 27 Sudeste 0 843.9 -- 92
2021-02-02 10:00:00 4.4 14 Sudeste 38 Sudeste 0.2 844.1 -- 92
2021-02-02 09:00:00 4.3 19 Sudeste 39 Sudeste 0 844.2 -- 91
2021-02-02 08:00:00 4 17 Sudeste 36 Sudoeste 0 844 -- 95
2021-02-02 07:00:00 4 20 Sur 40 Sur 0 844 -- 93
2021-02-02 06:00:00 4.3 21 Sudeste 52 Sudeste 0 844.5 -- 88
2021-02-02 05:00:00 4.6 29 Sudeste 65 Sudeste 0 844.1 -- 82
2021-02-02 04:00:00 4.9 22 Sudeste 86 Sudeste 0 844.4 -- 82
2021-02-02 03:00:00 5 31 Sudeste 77 Sudeste 0 844.3 -- 88
2021-02-02 02:00:00 5.6 31 Sudeste 78 Sudeste 0 844.3 -- 84
2021-02-02 01:00:00 5.6 30 Sudeste 58 Sudeste 0 844.5 -- 87
2021-02-02 00:00:00 5.8 16 Sudeste 62 Sudeste 0 844.6 -- 86
2021-02-01 23:00:00 6 26 Sudeste 51 Sudeste 0 844.5 -- 86
2021-02-01 22:00:00 6.2 12 Este 39 Sudeste 0 844.4 -- 86
2021-02-01 21:00:00 6.1 21 Sudeste 40 Sudeste 0 844.6 -- 87
2021-02-01 20:00:00 5.8 13 Sur 46 Noroeste 0 845.5 -- 92
2021-02-01 19:00:00 7.6 19 Noroeste 61 Noroeste 0 845.6 -- 85
2021-02-01 18:00:00 7.5 21 Noroeste 48 Noroeste 0 845.3 -- 85
2021-02-01 17:00:00 7.5 18 Noroeste 60 Oeste 0 845.3 -- 82
2021-02-01 16:00:00 7.8 18 Oeste 53 Noroeste 0 845.2 -- 79
2021-02-01 15:00:00 6.4 14 Oeste 42 Sudoeste 0 845.6 -- 75
2021-02-01 14:00:00 5.5 19 Norte 48 Noroeste 0 846.2 -- 77
2021-02-01 13:00:00 6.3 21 Noroeste 57 Noroeste 0 846.3 -- 75
2021-02-01 12:00:00 5.6 23 Noroeste 51 Noroeste 0 845.7 -- 84
2021-02-01 11:00:00 5.2 21 Noroeste 50 Noroeste 0 845.3 -- 89
2021-02-01 10:00:00 4.7 21 Noroeste 38 Noroeste 0 844.9 -- 90
2021-02-01 09:00:00 4.1 15 Noroeste 37 Noroeste 0 844.5 -- 91
2021-02-01 08:00:00 4.1 17 Noroeste 55 Sudoeste 0 844.1 -- 89
2021-02-01 07:00:00 4.8 22 Noroeste 64 Sudoeste 0 843.7 -- 81
2021-02-01 06:00:00 4.5 19 Noroeste 61 Sudoeste 0 843.5 -- 78
2021-02-01 05:00:00 4.5 19 Noroeste 57 Noroeste 0 843 -- 73
2021-02-01 04:00:00 4.4 27 Noroeste 67 Noroeste 0 842.8 -- 74
2021-02-01 03:00:00 4.3 22 Noroeste 67 Oeste 0 842.5 -- 70
2021-02-01 02:00:00 3.7 28 Noroeste 68 Noroeste 0 842.2 -- 80
2021-02-01 01:00:00 3.6 28 Noroeste 68 Noroeste 0 842 -- 82
2021-02-01 00:00:00 3.7 27 Noroeste 79 Noroeste 0 841.5 -- 77
2021-01-31 23:00:00 3.6 26 Noroeste 63 Noroeste 0 841.1 -- 83
2021-01-31 22:00:00 3.8 37 Noroeste 81 Noroeste 0 840.9 -- 77
2021-01-31 21:00:00 4.2 31 Noroeste 74 Noroeste 0.2 840.7 -- 83
2021-01-31 20:00:00 4.5 34 Noroeste 74 Noroeste 0 840.7 -- 84
2021-01-31 19:00:00 4.7 30 Noroeste 67 Noroeste 1 840.8 -- 89
2021-01-31 18:00:00 5.8 25 Noroeste 89 Noroeste 0 840.6 -- 81
2021-01-31 17:00:00 6.7 36 Noroeste 78 Noroeste 0 840.5 -- 71
2021-01-31 16:00:00 7.9 26 Noroeste 77 Noroeste 0 841.5 -- 69
2021-01-31 15:00:00 7.1 30 Noroeste 85 Noroeste 0 841.5 -- 71
2021-01-31 14:00:00 6.8 25 Noroeste 57 Noroeste 0 842.8 -- 71
2021-01-31 13:00:00 6.4 19 Noroeste 42 Noroeste 0 843.3 -- 82
2021-01-31 12:00:00 7 22 Noroeste 57 Oeste 0 843.4 -- 81
2021-01-31 11:00:00 6.8 22 Noroeste 40 Noroeste 0 843 -- 88
2021-01-31 10:00:00 5.5 21 Noroeste 43 Noroeste 0.2 842.8 -- 92
2021-01-31 09:00:00 5 19 Noroeste 52 Sudoeste 0.6 842.5 -- 92
2021-01-31 08:00:00 5 17 Noroeste 50 Oeste 0.4 842.3 -- 92
2021-01-31 07:00:00 4.3 18 Noroeste 43 Noroeste 0 842.6 -- 92
2021-01-31 06:00:00 2.2 14 Norte 37 Noroeste 0 842.9 -- 92
2021-01-31 05:00:00 1.8 12 Noroeste 34 Noroeste 0 842.6 -- 93
2021-01-31 04:00:00 0.9 17 Noroeste 43 Norte 0 843.2 -- 88
2021-01-31 03:00:00 0.8 27 Noroeste 50 Noroeste 0 843 -- 86
2021-01-31 02:00:00 0.6 26 Noroeste 53 Noroeste 0 842.8 -- 91
2021-01-31 01:00:00 0.1 29 Noroeste 57 Noroeste 0 842.7 -- 94
2021-01-31 00:00:00 0.4 26 Noroeste 48 Noroeste 0 842 -- 94
2021-01-30 23:00:00 0.1 23 Noroeste 54 Noroeste 0 841.7 -- 95
2021-01-30 22:00:00 0.2 23 Noroeste 50 Noroeste 0.2 841 -- 93
2021-01-30 21:00:00 0 23 Noroeste 61 Noroeste 0 840.8 -- 94
2021-01-30 20:00:00 -0.7 24 Noroeste 57 Noroeste 0.2 840.9 -- 94
2021-01-30 19:00:00 -0.7 23 Noroeste 53 Noroeste 0.8 840.1 -- 95
2021-01-30 18:00:00 0 21 Noroeste 58 Noroeste 0.4 839.1 -- 92
2021-01-30 17:00:00 0.2 29 Noroeste 60 Noroeste 0 839.2 -- 89
2021-01-30 16:00:00 0.6 25 Noroeste 66 Noroeste 0 839.2 -- 90
2021-01-30 15:00:00 0.7 32 Noroeste 75 Norte 1.6 839.2 -- 90
2021-01-30 14:00:00 0.7 18 Noroeste 52 Noroeste 1 838.9 -- 92
2021-01-30 13:00:00 0.6 30 Noroeste 73 Noroeste 0.4 839.4 -- 87
2021-01-30 12:00:00 0.6 31 Noroeste 95 Noroeste 0 839.4 -- 82
2021-01-30 11:00:00 0.1 25 Noroeste 85 Noroeste 0 839.5 -- 86
2021-01-30 10:00:00 0.3 28 Noroeste 68 Noroeste 0.2 839.5 -- 82
2021-01-30 09:00:00 0.3 33 Noroeste 69 Noroeste 0 839.5 -- 89
2021-01-30 08:00:00 0.7 37 Noroeste 86 Noroeste 0 839.4 -- 81
2021-01-30 07:00:00 1.1 45 Noroeste 107 Noroeste 0 839.6 -- 87
2021-01-30 06:00:00 1.7 39 Noroeste 85 Noroeste 0 839.6 -- 86
2021-01-30 05:00:00 1.7 29 Noroeste 88 Noroeste 1 840.2 -- 89
2021-01-30 04:00:00 2.5 24 Noroeste 67 Noroeste 0 840.3 -- 87
2021-01-30 03:00:00 2.6 31 Norte -- -- 1.8 840.8 -- 90
2021-01-30 02:00:00 2.9 -- -- -- -- 3.4 841.9 -- 92
2021-01-30 01:00:00 4.2 16 Noroeste -- -- 3.6 842.7 -- 88
2021-01-30 00:00:00 4.7 -- -- -- -- 0.4 842.6 -- 89
2021-01-29 23:00:00 4.7 -- -- -- -- 0 842.7 -- 86
2021-01-29 22:00:00 5.4 -- -- -- -- 0 842.9 -- 79
2021-01-29 21:00:00 5.5 -- -- -- -- 0 844.5 -- 82
2021-01-29 20:00:00 6.3 28 Sudeste 63 Sudeste 0 845.5 -- 84
2021-01-29 19:00:00 6.6 24 Sudeste 58 Sudeste 0 846.1 -- 86
2021-01-29 18:00:00 6.9 25 Sudeste 69 Sur 0 846.4 -- 86
2021-01-29 17:00:00 7.2 20 Sudeste 36 Sudeste 0 847 -- 82
2021-01-29 16:00:00 7.7 17 Sudeste 31 Sudeste 0 847.7 -- 82
2021-01-29 15:00:00 8.5 9 Sudeste 23 Sudeste 0 848.3 -- 78
2021-01-29 14:00:00 8.8 5 Sur 43 Noroeste 0 849.2 -- 78
2021-01-29 13:00:00 7.5 6 Noroeste 27 Noroeste 0 849.8 -- 83
2021-01-29 12:00:00 7.8 6 Norte 23 Norte 0 850.1 -- 82
2021-01-29 11:00:00 5.5 3 Norte 11 Sur 0 850.2 -- 90
2021-01-29 10:00:00 6 7 Sudoeste 44 Noroeste 0 850 -- 90
2021-01-29 09:00:00 6.1 15 Noroeste 41 Oeste 0 849.8 -- 88
2021-01-29 08:00:00 6.3 19 Noroeste 55 Noroeste 0 849.7 -- 87
2021-01-29 07:00:00 6.1 23 Noroeste 55 Oeste 0 849.7 -- 88
2021-01-29 06:00:00 6.7 22 Oeste 55 Norte 0 850.1 -- 82
2021-01-29 05:00:00 6.3 16 Noroeste 46 Noroeste 0.2 850 -- 86
2021-01-29 04:00:00 6 20 Noroeste 46 Noroeste 0 850.4 -- 88
2021-01-29 03:00:00 6.3 13 Noroeste 41 Noroeste 0 850.1 -- 88
2021-01-29 02:00:00 5.8 17 Noroeste 34 Noroeste 0 850.6 -- 91
2021-01-29 01:00:00 6.2 7 Oeste 26 Oeste 0.2 850.5 -- 90
2021-01-29 00:00:00 6.3 19 Noroeste 62 Noroeste 0 851 -- 89
2021-01-28 23:00:00 6.6 13 Noroeste 39 Oeste 0 850.5 -- 88
2021-01-28 22:00:00 6.9 17 Noroeste 48 Noroeste 0 850.4 -- 83
2021-01-28 21:00:00 7.3 20 Noroeste 59 Oeste 0 850.6 -- 80
2021-01-28 20:00:00 8.1 17 Noroeste 53 Oeste 0 850.3 -- 77
2021-01-28 19:00:00 7.8 12 Nordeste 42 Noroeste 0 850.1 -- 80
2021-01-28 18:00:00 8.3 17 Sudeste 50 Sudeste 0 850.1 -- 82
2021-01-28 17:00:00 8.9 23 Sudeste 49 Sudeste 0 850 -- 79
2021-01-28 16:00:00 10.1 8 Nordeste 40 Nordeste 0 850.6 -- 71
2021-01-28 15:00:00 11.8 8 Nordeste 30 Norte 0 850.9 -- 63
2021-01-28 14:00:00 9.5 5 Este 12 Sur 0 852.1 -- 74
2021-01-28 13:00:00 11.5 4 Sudeste 22 Sur 0 852.9 -- 65
2021-01-28 12:00:00 11.7 9 Sudoeste 33 Oeste 0 853.2 -- 61
2021-01-28 11:00:00 11.4 14 Sur 47 Oeste 0 852.8 -- 58
2021-01-28 10:00:00 10.1 13 Noroeste 68 Oeste 0 852.8 -- 65
2021-01-28 09:00:00 8.9 17 Noroeste 59 Noroeste 0 852.1 -- 69
2021-01-28 08:00:00 8.9 15 Sur 72 Oeste 0 852.1 -- 68
2021-01-28 07:00:00 8 15 Sudoeste 47 Nordeste 0 852.3 -- 72
2021-01-28 06:00:00 7.9 14 Sur 38 Oeste 0 852.3 -- 68
2021-01-28 05:00:00 6.6 15 Sudeste 37 Sudeste 0 852.7 -- 73
2021-01-28 04:00:00 4.8 14 Sudeste 23 Sudoeste 0 853.1 -- 93
2021-01-28 03:00:00 5.7 13 Sur 24 Sur 0 853.4 -- 90
2021-01-28 02:00:00 5.1 10 Sur 23 Sudeste 0 853.9 -- 95
2021-01-28 01:00:00 4.9 13 Sudeste 20 Sudeste 0 854.5 -- 94
2021-01-28 00:00:00 5.4 14 Sudeste 23 Sudeste 0 854.6 -- 92
2021-01-27 23:00:00 6 15 Sur 22 Sur 0 854.9 -- 88
2021-01-27 22:00:00 5.4 13 Sur 17 Sur 0 854.7 -- 90
2021-01-27 21:00:00 5.7 10 Sur 19 Sudeste 0 854.9 -- 91
2021-01-27 20:00:00 5.7 12 Sudeste 17 Sur 0 854.8 -- 90
2021-01-27 19:00:00 6 9 Sudeste 19 Sur 0 854.9 -- 91
2021-01-27 18:00:00 7 12 Sur 24 Sudeste 0 855 -- 87
2021-01-27 17:00:00 7.8 15 Sudeste 19 Sur 0 855 -- 84
2021-01-27 16:00:00 8.3 12 Sur 19 Sur 0 855.3 -- 82
2021-01-27 15:00:00 10.3 6 Sudoeste 35 Noroeste 0 855.3 -- 72
2021-01-27 14:00:00 11.9 7 Noroeste 28 Oeste 0 855.9 -- 64
2021-01-27 13:00:00 11.2 6 Oeste 21 Sudoeste 0 856.2 -- 68
2021-01-27 12:00:00 11.4 8 Oeste 18 Oeste 0 856.4 -- 69
2021-01-27 11:00:00 9.1 5 Sudeste 12 Norte 0 855.8 -- 80
2021-01-27 10:00:00 6.9 4 Este 12 Sudeste 0 855.4 -- 95
2021-01-27 09:00:00 5 3 Sudeste 7 Norte 0 855.1 -- 96
2021-01-27 08:00:00 5 3 Sudeste 23 Norte 0 854.9 -- 96
2021-01-27 07:00:00 4.8 18 Norte 32 Norte 0 854.5 -- 96
2021-01-27 06:00:00 5.1 21 Norte 35 Noroeste 0 854.4 -- 96
2021-01-27 05:00:00 5.8 23 Norte 36 Norte 0 854.2 -- 96
2021-01-27 04:00:00 5.4 23 Norte 39 Norte 0 854.3 -- 96
2021-01-27 03:00:00 6 21 Noroeste 46 Noroeste 0 854.1 -- 96
2021-01-27 02:00:00 5.7 6 Noroeste 23 Noroeste 0 854.2 -- 96
2021-01-27 01:00:00 5.2 3 Sudoeste 17 Oeste 0 854.4 -- 96
2021-01-27 00:00:00 5.5 3 Norte 18 Oeste 0 854.6 -- 96
2021-01-26 23:00:00 6.1 4 Nordeste 12 Noroeste 0 854.3 -- 96
2021-01-26 22:00:00 6.1 2 Este 12 Norte 0 853.9 -- 96
2021-01-26 21:00:00 6 3 Sudeste 13 Oeste 0 853.4 -- 96
2021-01-26 20:00:00 6.3 3 Noroeste 11 Norte 1 853.2 -- 96
2021-01-26 19:00:00 6.1 3 Oeste 9 Oeste 0 852.8 -- 96
2021-01-26 18:00:00 6 6 Noroeste 12 Noroeste 0 852.5 -- 94
2021-01-26 17:00:00 6.8 6 Noroeste 17 Noroeste 0 852.2 -- 92
2021-01-26 16:00:00 8.9 8 Noroeste 21 Oeste 0 852 -- 84
2021-01-26 15:00:00 9.4 10 Noroeste 27 Noroeste 0 851.9 -- 82
2021-01-26 14:00:00 7.9 10 Noroeste 24 Noroeste 0 852.1 -- 88
2021-01-26 13:00:00 8.2 3 Nordeste 17 Este 0 851.7 -- 86
2021-01-26 12:00:00 7.4 6 Sudeste 10 Sudoeste 0 851.8 -- 90
2021-01-26 11:00:00 6.8 6 Noroeste 21 Norte 0 851.4 -- 91
2021-01-26 10:00:00 5.7 7 Norte 23 Oeste 0 850.9 -- 92
2021-01-26 09:00:00 5.9 10 Noroeste 27 Oeste 0 850.4 -- 94
2021-01-26 08:00:00 5.3 13 Noroeste 29 Noroeste 0 850.1 -- 95
2021-01-26 07:00:00 4.8 9 Noroeste 22 Oeste 0 849.8 -- 95
2021-01-26 06:00:00 4.3 5 Noroeste 14 Noroeste 0 849.3 -- 96
2021-01-26 05:00:00 3.9 2 Oeste 15 Oeste 0 849.1 -- 96
2021-01-26 04:00:00 4.1 7 Noroeste 24 Oeste 0 849.3 -- 94
2021-01-26 03:00:00 4.7 9 Noroeste 23 Sudoeste 0 848.7 -- 95
2021-01-26 02:00:00 4.8 9 Oeste 22 Oeste 0 848.3 -- 95
2021-01-26 01:00:00 4.1 6 Noroeste 28 Oeste 0 848.1 -- 94
2021-01-26 00:00:00 4 6 Noroeste 21 Oeste 0 847.9 -- 95
2021-01-25 23:00:00 3.4 3 Noroeste 12 Oeste 0 847.5 -- 95
2021-01-25 22:00:00 3.4 9 Noroeste 21 Noroeste 0 847.1 -- 95
2021-01-25 21:00:00 2.2 2 Sudeste 4 Sudoeste 0 846.5 -- 96
2021-01-25 20:00:00 2.3 2 Sudeste 6 Sudeste 0 845.9 -- 96
2021-01-25 19:00:00 3 3 Noroeste 14 Norte 0 845.1 -- 96
2021-01-25 18:00:00 2.9 10 Noroeste 19 Noroeste 0 844.6 -- 95
2021-01-25 17:00:00 3.4 16 Noroeste 21 Noroeste 0 843.9 -- 94
2021-01-25 16:00:00 4.6 9 Noroeste 15 Norte 0.4 843 -- 90
2021-01-25 15:00:00 3 11 Noroeste 19 Noroeste 0.4 842.6 -- 94
2021-01-25 14:00:00 3.4 12 Noroeste 15 Noroeste 1.2 842.2 -- 94
2021-01-25 13:00:00 2.9 9 Noroeste 18 Noroeste 2.6 841.8 -- 95
2021-01-25 12:00:00 2.6 11 Noroeste 24 Noroeste 2.6 841.3 -- 95
2021-01-25 11:00:00 3.8 10 Noroeste 25 Noroeste 2.8 840.1 -- 95
2021-01-25 10:00:00 4.9 13 Noroeste 38 Noroeste 1 839.1 -- 95
2021-01-25 09:00:00 4.8 24 Noroeste 56 Noroeste 0.6 838.5 -- 94
2021-01-25 08:00:00 5.1 28 Noroeste -- -- 0.6 838 -- 93
2021-01-25 07:00:00 5 -- -- -- -- 2 837.6 -- 94
2021-01-25 06:00:00 5.2 19 Noroeste 42 Noroeste 3.6 837.7 -- 94
2021-01-25 05:00:00 4 12 Oeste 33 Noroeste 4 837.9 -- 95
2021-01-25 04:00:00 3.2 11 Oeste 31 Oeste 2.8 838.5 -- 96
2021-01-25 03:00:00 1.2 7 Sur 18 Sur 2 839.3 -- 95
2021-01-25 02:00:00 0.9 4 Sur 21 Sudeste 1.2 840.2 -- 94
2021-01-25 01:00:00 0.7 10 Sudeste 22 Sudeste 0 840.5 -- 95
2021-01-25 00:00:00 0.8 8 Sur 21 Noroeste 0 841 -- 94